Time;durP1;ratioP1;P1;durP2;ratioP2;P2;SDS_P1;SDS_P2;PMS_P1;PMS_P2;Temp;Humidity;BMP_temperature;BMP_pressure;BME280_temperature;BME280_humidity;BME280_pressure;Samples;Min_cycle;Max_cycle;Signal;HPM_P1;HPM_P2
2021/12/17 00:00:20;;;;;;;20.73;14.60;;;6.10;99.90;;;;;;5095394;28;20553;-56
2021/12/17 00:06:04;;;;;;;17.73;13.90;;;5.90;99.90;;;;;;5094999;28;20409;-56
2021/12/17 00:08:31;;;;;;;16.97;12.63;;;5.90;99.90;;;;;;5095305;28;20466;-55
2021/12/17 00:10:59;;;;;;;24.43;15.73;;;5.90;99.90;;;;;;5095435;28;20471;-55
2021/12/17 00:13:27;;;;;;;15.37;12.57;;;6.00;99.90;;;;;;5095333;28;20538;-56
2021/12/17 00:15:55;;;;;;;18.90;13.17;;;6.20;99.90;;;;;;5095638;28;20447;-56
2021/12/17 00:18:27;;;;;;;16.90;14.13;;;6.20;99.90;;;;;;5095411;28;20872;-55
2021/12/17 00:48:48;;;;;;;18.10;13.67;;;6.20;99.90;;;;;;5094911;28;20582;-56
2021/12/17 00:54:07;;;;;;;17.57;13.70;;;6.10;99.90;;;;;;5094921;28;20407;-55
2021/12/17 00:56:36;;;;;;;17.87;12.47;;;6.00;99.90;;;;;;5094767;28;20428;-56
2021/12/17 00:59:04;;;;;;;13.50;11.97;;;5.90;99.90;;;;;;5094531;28;20455;-56
2021/12/17 01:01:33;;;;;;;14.90;12.37;;;5.90;99.90;;;;;;5094477;28;20467;-57
2021/12/17 01:04:00;;;;;;;14.00;11.63;;;6.00;99.90;;;;;;5094556;28;20483;-56
2021/12/17 01:06:27;;;;;;;17.73;12.80;;;6.00;99.90;;;;;;5094480;28;20562;-56
2021/12/17 01:08:54;;;;;;;14.10;12.60;;;6.00;99.90;;;;;;5094264;28;20451;-56
2021/12/17 01:11:22;;;;;;;21.80;11.40;;;6.10;99.90;;;;;;5094616;28;20467;-56
2021/12/17 01:13:50;;;;;;;20.67;13.40;;;6.10;99.90;;;;;;5094198;28;20918;-56
2021/12/17 01:16:18;;;;;;;17.30;13.43;;;6.30;99.90;;;;;;5094463;28;20496;-56
2021/12/17 01:18:56;;;;;;;19.93;12.70;;;6.50;99.90;;;;;;5093125;28;20882;-56
2021/12/17 01:21:33;;;;;;;16.47;12.67;;;6.60;99.90;;;;;;5094615;28;20463;-55
2021/12/17 01:24:15;;;;;;;22.13;12.90;;;6.60;99.90;;;;;;5093998;28;20463;-57
2021/12/17 01:41:03;;;;;;;14.73;12.93;;;6.50;99.90;;;;;;5077968;28;20451;-57
2021/12/17 01:43:36;;;;;;;17.93;12.93;;;6.50;99.90;;;;;;5093696;28;20534;-56
2021/12/17 01:46:05;;;;;;;14.30;12.70;;;6.40;99.90;;;;;;5094099;28;20504;-57
2021/12/17 01:48:49;;;;;;;15.57;11.47;;;6.30;99.90;;;;;;5093904;28;20447;-55
2021/12/17 01:56:58;;;;;;;15.73;11.90;;;6.40;99.90;;;;;;5093542;28;20411;-56
2021/12/17 01:59:32;;;;;;;15.43;12.90;;;6.40;99.90;;;;;;5093534;28;20431;-56
2021/12/17 02:02:04;;;;;;;17.80;12.33;;;6.40;99.90;;;;;;5093212;28;20430;-56
2021/12/17 02:04:32;;;;;;;15.13;13.13;;;6.30;99.90;;;;;;5093610;28;20467;-55
2021/12/17 02:07:02;;;;;;;16.20;11.93;;;6.10;99.90;;;;;;5093291;28;20550;-56
2021/12/17 02:12:32;;;;;;;14.93;12.83;;;6.10;99.90;;;;;;5061743;28;20427;-55
2021/12/17 02:29:04;;;;;;;18.30;13.60;;;6.20;99.90;;;;;;5092672;28;20917;-56
2021/12/17 02:31:32;;;;;;;14.93;13.43;;;6.10;99.90;;;;;;5092744;28;20470;-55
2021/12/17 02:34:04;;;;;;;14.17;11.73;;;6.00;99.90;;;;;;5093276;28;20448;-56
2021/12/17 02:36:35;;;;;;;16.13;13.40;;;6.10;99.90;;;;;;5093248;28;20455;-55
2021/12/17 02:39:22;;;;;;;18.07;12.07;;;6.20;99.90;;;;;;5092752;28;20483;-56
2021/12/17 02:47:22;;;;;;;15.20;11.30;;;6.40;99.90;;;;;;5092914;28;20892;-55
2021/12/17 02:49:50;;;;;;;23.90;15.77;;;6.30;99.90;;;;;;5093009;28;20470;-56
2021/12/17 02:52:19;;;;;;;16.50;13.17;;;6.60;99.90;;;;;;5092833;28;20816;-56
2021/12/17 02:54:47;;;;;;;21.90;12.40;;;6.40;99.90;;;;;;5092949;28;20476;-56
2021/12/17 02:57:14;;;;;;;14.73;12.80;;;6.30;99.90;;;;;;5092917;28;20458;-56
2021/12/17 02:59:41;;;;;;;16.07;13.20;;;6.40;99.90;;;;;;5092564;28;20474;-56
2021/12/17 03:02:10;;;;;;;14.07;12.53;;;6.50;99.90;;;;;;5092643;28;20455;-55
2021/12/17 03:04:42;;;;;;;13.83;12.30;;;6.50;99.90;;;;;;5092528;28;20478;-56
2021/12/17 03:07:11;;;;;;;18.83;12.93;;;6.60;99.90;;;;;;5092771;28;20548;-55
2021/12/17 03:09:57;;;;;;;13.80;12.17;;;6.60;99.90;;;;;;5092877;28;20495;-56
2021/12/17 03:12:30;;;;;;;15.40;12.47;;;6.60;99.90;;;;;;5092940;28;20428;-56
2021/12/17 03:15:05;;;;;;;19.50;13.63;;;6.80;99.90;;;;;;5092596;28;20432;-55
2021/12/17 03:17:54;;;;;;;18.47;13.73;;;6.90;99.90;;;;;;5092489;28;20557;-55
2021/12/17 03:25:52;;;;;;;14.77;12.50;;;6.80;99.90;;;;;;5092339;28;20494;-55
2021/12/17 03:28:19;;;;;;;18.03;13.00;;;6.80;99.90;;;;;;5092620;28;20510;-56
2021/12/17 03:30:47;;;;;;;14.97;12.30;;;6.60;99.90;;;;;;5092261;28;20520;-57
2021/12/17 03:33:14;;;;;;;15.97;13.10;;;6.70;99.90;;;;;;5092211;28;20468;-56
2021/12/17 03:35:42;;;;;;;16.50;13.87;;;6.70;99.90;;;;;;5092545;28;20451;-56
2021/12/17 03:38:09;;;;;;;15.27;13.43;;;6.80;99.90;;;;;;5092137;28;20829;-55
2021/12/17 03:40:39;;;;;;;16.57;12.73;;;6.80;99.90;;;;;;5092210;28;20553;-56
2021/12/17 03:43:12;;;;;;;18.07;13.37;;;6.70;99.90;;;;;;5096604;28;20842;-56
2021/12/17 03:45:40;;;;;;;16.33;13.13;;;6.50;99.90;;;;;;5095954;28;20459;-56
2021/12/17 03:48:08;;;;;;;18.40;13.03;;;6.50;99.90;;;;;;5096346;28;20500;-55
2021/12/17 03:50:36;;;;;;;15.37;12.67;;;6.40;99.90;;;;;;5095835;28;20474;-56
2021/12/17 03:53:04;;;;;;;15.47;11.77;;;6.40;99.90;;;;;;5096241;28;20486;-56
2021/12/17 03:55:32;;;;;;;15.57;13.87;;;6.40;99.90;;;;;;5095892;28;20444;-56
2021/12/17 03:58:00;;;;;;;20.40;14.40;;;6.40;99.90;;;;;;5095905;28;20427;-57
2021/12/17 04:00:29;;;;;;;16.50;13.67;;;6.60;99.90;;;;;;5095503;28;20467;-56
2021/12/17 04:02:57;;;;;;;16.27;13.83;;;6.60;99.90;;;;;;5096115;28;20439;-56
2021/12/17 04:05:25;;;;;;;16.63;13.33;;;6.60;99.90;;;;;;5095897;28;20571;-55
2021/12/17 04:07:52;;;;;;;18.57;14.13;;;6.40;99.90;;;;;;5095412;28;21053;-55
2021/12/17 04:10:20;;;;;;;19.23;15.67;;;6.50;99.90;;;;;;5095700;28;20839;-56
2021/12/17 04:12:54;;;;;;;20.90;16.00;;;6.60;99.90;;;;;;5095875;28;20490;-56
2021/12/17 04:15:30;;;;;;;18.13;15.07;;;6.70;99.90;;;;;;5095442;28;20424;-55
2021/12/17 04:17:59;;;;;;;20.50;15.43;;;6.50;99.90;;;;;;5095833;28;20435;-57
2021/12/17 04:20:27;;;;;;;18.63;13.50;;;6.70;99.90;;;;;;5095537;28;20468;-56
2021/12/17 04:22:54;;;;;;;22.67;16.43;;;6.60;99.90;;;;;;5095915;28;20443;-56
2021/12/17 04:25:22;;;;;;;21.67;17.03;;;6.70;99.90;;;;;;5095434;28;20479;-55
2021/12/17 04:27:49;;;;;;;20.83;16.47;;;6.60;99.90;;;;;;5095474;28;20506;-56
2021/12/17 04:30:20;;;;;;;17.00;15.03;;;6.50;99.90;;;;;;5095440;28;20467;-55
2021/12/17 04:32:47;;;;;;;22.47;15.37;;;6.50;99.90;;;;;;5095430;28;20466;-56
2021/12/17 04:35:15;;;;;;;21.33;16.80;;;6.50;99.90;;;;;;5095164;28;20467;-56
2021/12/17 04:37:43;;;;;;;23.20;15.90;;;6.40;99.90;;;;;;5094960;28;20479;-56
2021/12/17 04:40:11;;;;;;;19.00;15.20;;;6.30;99.90;;;;;;5094844;28;20547;-56
2021/12/17 04:42:48;;;;;;;24.40;16.77;;;6.40;99.90;;;;;;5095222;28;20454;-56
2021/12/17 04:45:15;;;;;;;19.10;16.57;;;6.50;99.90;;;;;;5094802;28;20502;-57
2021/12/17 04:58:47;;;;;;;22.40;16.80;;;6.50;99.90;;;;;;5094955;28;20438;-56
2021/12/17 05:01:15;;;;;;;18.43;14.50;;;6.50;99.90;;;;;;5094353;28;20470;-55
2021/12/17 05:03:43;;;;;;;21.50;16.50;;;6.60;99.90;;;;;;5094577;28;20482;-56
2021/12/17 05:06:11;;;;;;;20.80;14.17;;;6.60;99.90;;;;;;5094402;28;20570;-55
2021/12/17 05:08:39;;;;;;;20.63;15.23;;;6.70;99.90;;;;;;5094866;28;20455;-55
2021/12/17 05:11:26;;;;;;;22.70;15.60;;;6.90;99.90;;;;;;5094157;28;20558;-55
2021/12/17 05:19:43;;;;;;;18.90;14.90;;;6.80;99.90;;;;;;5093868;28;20741;-55
2021/12/17 05:22:12;;;;;;;19.80;14.53;;;6.70;99.90;;;;;;5094046;28;20459;-55
2021/12/17 05:24:39;;;;;;;19.93;15.20;;;6.70;99.90;;;;;;5093773;28;20566;-56
2021/12/17 05:27:07;;;;;;;20.43;14.90;;;6.80;99.90;;;;;;5094264;28;20454;-55
2021/12/17 05:29:34;;;;;;;18.00;14.77;;;6.90;99.90;;;;;;5093767;28;20432;-55
2021/12/17 05:32:01;;;;;;;16.00;13.87;;;7.00;99.90;;;;;;5093662;28;20966;-55
2021/12/17 05:34:28;;;;;;;19.07;14.20;;;7.00;99.90;;;;;;5093776;28;20447;-55
2021/12/17 05:36:55;;;;;;;17.37;13.80;;;7.10;99.90;;;;;;5093417;28;20458;-55
2021/12/17 05:39:24;;;;;;;18.23;15.13;;;7.10;99.90;;;;;;5093474;28;20894;-56
2021/12/17 05:41:52;;;;;;;16.37;13.73;;;7.20;99.90;;;;;;5093940;28;20424;-55
2021/12/17 05:44:20;;;;;;;18.27;15.00;;;7.10;99.90;;;;;;5093447;28;20451;-55
2021/12/17 05:46:50;;;;;;;21.20;15.03;;;6.90;99.90;;;;;;5093852;28;20454;-56
2021/12/17 05:49:18;;;;;;;18.33;15.33;;;6.80;99.90;;;;;;5093934;28;20862;-55
2021/12/17 05:51:45;;;;;;;17.70;13.23;;;7.00;99.90;;;;;;5093845;28;20554;-56
2021/12/17 05:54:13;;;;;;;18.37;13.20;;;7.10;99.90;;;;;;5093629;28;20494;-56
2021/12/17 05:56:42;;;;;;;15.97;12.63;;;7.20;99.90;;;;;;5093659;28;20439;-55
2021/12/17 05:59:10;;;;;;;16.23;13.67;;;7.30;99.90;;;;;;5093820;28;20474;-56
2021/12/17 06:01:37;;;;;;;15.63;13.93;;;7.40;99.90;;;;;;5093411;28;21008;-55
2021/12/17 06:04:05;;;;;;;19.00;15.23;;;7.40;99.90;;;;;;5093269;28;20482;-55
2021/12/17 06:06:34;;;;;;;17.90;15.00;;;7.20;99.90;;;;;;5093687;28;20580;-56
2021/12/17 06:09:05;;;;;;;20.53;13.77;;;7.30;99.90;;;;;;5093186;28;20487;-56
2021/12/17 06:11:32;;;;;;;15.67;14.07;;;7.30;99.90;;;;;;5093452;28;20464;-55
2021/12/17 06:14:00;;;;;;;13.83;12.30;;;7.30;99.90;;;;;;5093504;28;20489;-56
2021/12/17 06:16:28;;;;;;;21.20;13.73;;;7.20;99.90;;;;;;5093021;28;20449;-55
2021/12/17 06:18:55;;;;;;;15.20;12.73;;;7.20;99.90;;;;;;5093429;28;20447;-56
2021/12/17 06:21:23;;;;;;;14.13;12.40;;;7.10;99.90;;;;;;5093519;28;20563;-54
2021/12/17 06:23:50;;;;;;;12.60;10.17;;;7.10;99.90;;;;;;5093263;28;20465;-54
2021/12/17 06:26:17;;;;;;;12.53;9.27;;;7.00;99.90;;;;;;5093046;28;20822;-54
2021/12/17 06:28:46;;;;;;;12.90;11.33;;;7.10;99.90;;;;;;5093227;28;20454;-54
2021/12/17 06:31:15;;;;;;;13.50;11.17;;;7.10;99.90;;;;;;5092722;28;20471;-54
2021/12/17 06:33:42;;;;;;;14.60;10.40;;;7.00;99.90;;;;;;5092865;28;20443;-54
2021/12/17 06:36:09;;;;;;;20.50;12.17;;;6.90;99.90;;;;;;5092655;28;20806;-54
2021/12/17 06:38:36;;;;;;;10.20;8.70;;;6.90;99.90;;;;;;5092661;28;20843;-54
2021/12/17 06:41:04;;;;;;;11.97;9.70;;;6.90;99.90;;;;;;5092796;28;20467;-55
2021/12/17 06:43:36;;;;;;;14.77;11.63;;;6.90;99.90;;;;;;5092668;28;20486;-55
2021/12/17 06:46:16;;;;;;;16.03;12.57;;;6.90;99.90;;;;;;5092740;28;20467;-55
2021/12/17 06:48:47;;;;;;;17.13;13.23;;;6.90;99.90;;;;;;5092623;28;20952;-55
2021/12/17 06:57:54;;;;;;;13.33;11.23;;;6.80;99.90;;;;;;5092997;28;20411;-55
2021/12/17 07:00:18;;;;;;;19.30;11.73;;;6.60;99.90;;;;;;5092130;28;20486;-55
2021/12/17 07:11:01;;;;;;;12.53;11.00;;;6.60;99.90;;;;;;5092247;28;20443;-55
2021/12/17 07:21:59;;;;;;;12.27;10.73;;;6.70;99.90;;;;;;5096226;28;20435;-55
2021/12/17 07:33:06;;;;;;;18.70;12.60;;;6.70;99.90;;;;;;5095366;28;20440;-55
2021/12/17 07:35:48;;;;;;;15.80;11.33;;;6.70;99.90;;;;;;5096124;28;20898;-55
2021/12/17 07:41:02;;;;;;;14.67;12.63;;;6.70;99.90;;;;;;5095998;28;20540;-55
2021/12/17 07:43:37;;;;;;;13.30;10.77;;;6.70;99.90;;;;;;5095567;28;20970;-55
2021/12/17 07:46:05;;;;;;;13.83;9.77;;;6.80;99.90;;;;;;5095446;28;20972;-55
2021/12/17 07:48:33;;;;;;;15.00;10.00;;;6.80;99.90;;;;;;5095618;28;20451;-55
2021/12/17 07:51:03;;;;;;;14.33;9.07;;;6.90;99.90;;;;;;5095711;28;20451;-55
2021/12/17 07:53:33;;;;;;;11.27;8.63;;;6.90;99.90;;;;;;5095744;28;20439;-55
2021/12/17 07:56:01;;;;;;;16.27;10.27;;;6.90;99.90;;;;;;5095451;28;20424;-55
2021/12/17 07:58:29;;;;;;;11.93;8.87;;;7.00;99.90;;;;;;5095321;28;20854;-55
2021/12/17 08:00:56;;;;;;;9.47;8.47;;;7.00;99.90;;;;;;5095240;28;20463;-55
2021/12/17 08:03:23;;;;;;;10.40;8.40;;;7.00;99.90;;;;;;5094209;28;20534;-55
2021/12/17 08:05:51;;;;;;;10.10;9.03;;;7.10;99.90;;;;;;5093793;28;20478;-55
2021/12/17 08:08:19;;;;;;;9.73;8.73;;;7.10;99.90;;;;;;5094649;28;20495;-55
2021/12/17 08:10:48;;;;;;;9.43;8.30;;;6.90;99.90;;;;;;5094062;28;20463;-55
2021/12/17 08:13:20;;;;;;;9.17;8.23;;;7.10;99.90;;;;;;5094152;28;20462;-55
2021/12/17 08:16:04;;;;;;;9.70;8.70;;;7.10;99.90;;;;;;5094586;28;20515;-55
2021/12/17 08:18:47;;;;;;;11.43;8.77;;;7.00;99.90;;;;;;5094820;28;20459;-55
2021/12/17 08:27:23;;;;;;;9.30;8.33;;;7.00;99.90;;;;;;5094203;28;20463;-56
2021/12/17 08:29:56;;;;;;;9.23;8.27;;;7.00;99.90;;;;;;5094968;28;20468;-53
2021/12/17 08:32:24;;;;;;;10.20;8.70;;;7.00;99.90;;;;;;5095078;28;20501;-55
2021/12/17 08:34:51;;;;;;;18.63;7.80;;;7.00;99.90;;;;;;5095220;28;20775;-53
2021/12/17 08:37:18;;;;;;;7.30;6.60;;;7.00;99.90;;;;;;5094860;28;20485;-56
2021/12/17 08:39:45;;;;;;;7.10;6.20;;;6.90;99.90;;;;;;5094943;28;20467;-56
2021/12/17 08:42:14;;;;;;;7.10;6.40;;;6.90;99.90;;;;;;5094889;28;20451;-56
2021/12/17 08:44:41;;;;;;;7.13;6.43;;;6.90;99.90;;;;;;5094927;28;20509;-54
2021/12/17 08:47:10;;;;;;;11.20;6.17;;;6.80;99.90;;;;;;5094708;28;20483;-54
2021/12/17 08:49:40;;;;;;;6.27;5.67;;;6.80;99.90;;;;;;5094844;28;20497;-54
2021/12/17 08:52:08;;;;;;;6.80;5.80;;;6.90;99.90;;;;;;5095002;28;20516;-54
2021/12/17 08:54:35;;;;;;;5.93;5.27;;;6.90;99.90;;;;;;5094143;28;20451;-54
2021/12/17 08:57:03;;;;;;;6.73;6.03;;;6.90;99.90;;;;;;5094441;28;20443;-54
2021/12/17 08:59:32;;;;;;;7.80;7.00;;;7.00;99.90;;;;;;5094636;28;20450;-54
2021/12/17 09:02:01;;;;;;;8.50;5.30;;;6.90;99.90;;;;;;5094370;28;20446;-54
2021/12/17 09:04:29;;;;;;;11.20;6.37;;;7.00;99.90;;;;;;5094275;28;20477;-54
2021/12/17 09:06:57;;;;;;;7.27;5.93;;;7.10;99.90;;;;;;5094092;28;20483;-55
2021/12/17 09:09:25;;;;;;;7.17;5.90;;;7.00;99.90;;;;;;5094384;28;20440;-54
2021/12/17 09:11:53;;;;;;;6.87;6.27;;;6.90;99.90;;;;;;5094601;28;20474;-55
2021/12/17 09:14:20;;;;;;;7.33;6.50;;;7.00;99.90;;;;;;5094201;28;20452;-55
2021/12/17 09:16:49;;;;;;;6.63;5.90;;;7.10;99.90;;;;;;5094436;28;20440;-55
2021/12/17 09:19:17;;;;;;;8.47;6.93;;;6.90;99.90;;;;;;5093823;28;20538;-55
2021/12/17 09:21:44;;;;;;;8.33;6.63;;;6.90;99.90;;;;;;5094180;28;20790;-55
2021/12/17 09:24:12;;;;;;;7.77;6.97;;;7.00;99.90;;;;;;5093943;28;20538;-55
2021/12/17 09:26:39;;;;;;;10.37;6.87;;;7.10;99.90;;;;;;5094311;28;20826;-55
2021/12/17 09:29:06;;;;;;;9.30;7.77;;;7.00;99.90;;;;;;5094723;28;20459;-55
2021/12/17 09:31:35;;;;;;;6.90;6.17;;;7.20;99.90;;;;;;5093598;28;20463;-55
2021/12/17 09:34:04;;;;;;;7.83;6.80;;;7.30;99.90;;;;;;5093866;28;20471;-55
2021/12/17 09:36:33;;;;;;;8.20;6.97;;;7.40;99.90;;;;;;5093735;28;20539;-55
2021/12/17 09:39:01;;;;;;;9.23;6.37;;;7.40;99.90;;;;;;5092516;28;20981;-55
2021/12/17 09:41:28;;;;;;;6.50;5.90;;;7.50;99.90;;;;;;5093565;28;20468;-55
2021/12/17 09:43:55;;;;;;;8.17;5.83;;;7.50;99.90;;;;;;5093361;28;21004;-55
2021/12/17 09:46:23;;;;;;;7.90;6.20;;;7.50;99.90;;;;;;5093681;28;20484;-55
2021/12/17 09:48:51;;;;;;;7.47;6.50;;;7.50;99.90;;;;;;5093281;28;20534;-55
2021/12/17 09:51:20;;;;;;;8.20;7.13;;;7.60;99.90;;;;;;5093495;28;20474;-55
2021/12/17 09:53:48;;;;;;;7.07;6.37;;;7.60;99.90;;;;;;5093284;28;20454;-55
2021/12/17 09:56:16;;;;;;;6.50;5.90;;;7.70;99.90;;;;;;5093118;28;20443;-55
2021/12/17 09:58:44;;;;;;;8.70;7.13;;;7.80;99.90;;;;;;5093365;28;20691;-55
2021/12/17 10:01:11;;;;;;;7.57;6.87;;;7.70;99.90;;;;;;5093407;28;20546;-55
2021/12/17 10:03:38;;;;;;;8.83;6.30;;;7.70;99.90;;;;;;5093183;28;20439;-55
2021/12/17 10:06:06;;;;;;;6.83;6.23;;;7.70;99.90;;;;;;5093257;28;20475;-55
2021/12/17 10:08:47;;;;;;;8.87;7.93;;;7.80;99.90;;;;;;5093422;28;20485;-55
2021/12/17 10:11:16;;;;;;;9.33;6.90;;;7.80;99.90;;;;;;5092877;28;20474;-55
2021/12/17 10:13:43;;;;;;;8.40;7.37;;;7.90;99.90;;;;;;5093125;28;20459;-55
2021/12/17 10:16:12;;;;;;;11.17;7.40;;;7.90;99.90;;;;;;5092775;28;20439;-55
2021/12/17 10:18:41;;;;;;;8.93;7.40;;;8.20;99.90;;;;;;5092973;28;20509;-55
2021/12/17 10:21:10;;;;;;;7.33;6.47;;;8.30;99.90;;;;;;5092143;28;20551;-55
2021/12/17 10:23:42;;;;;;;7.23;6.47;;;8.30;99.90;;;;;;5091933;28;20523;-55
2021/12/17 10:26:13;;;;;;;7.97;6.80;;;8.30;99.90;;;;;;5091813;28;20463;-55
2021/12/17 10:28:53;;;;;;;6.67;5.97;;;8.40;99.90;;;;;;5092299;28;20514;-55
2021/12/17 10:31:20;;;;;;;7.07;6.37;;;8.50;99.90;;;;;;5092946;28;20548;-55
2021/12/17 10:33:51;;;;;;;7.90;6.77;;;8.80;99.90;;;;;;5092451;28;20447;-55
2021/12/17 10:36:18;;;;;;;7.70;6.90;;;9.30;99.90;;;;;;5092784;28;20424;-55
2021/12/17 10:38:47;;;;;;;8.77;6.70;;;10.20;99.90;;;;;;5092568;28;20997;-55
2021/12/17 10:41:15;;;;;;;7.67;5.83;;;11.30;99.90;;;;;;5092653;28;20551;-55
2021/12/17 10:43:50;;;;;;;6.73;6.10;;;12.10;99.90;;;;;;5092870;28;20451;-55
2021/12/17 10:46:25;;;;;;;6.60;5.90;;;13.10;99.90;;;;;;5092621;28;20830;-56
2021/12/17 10:49:00;;;;;;;7.20;5.90;;;14.40;99.50;;;;;;5093035;28;20431;-55
2021/12/17 10:51:32;;;;;;;7.90;6.07;;;14.10;98.70;;;;;;5092562;28;20463;-55
2021/12/17 10:54:07;;;;;;;8.57;7.50;;;14.60;98.00;;;;;;5092585;28;20424;-55
2021/12/17 10:56:37;;;;;;;7.77;6.73;;;14.60;97.70;;;;;;5092903;28;20425;-55
2021/12/17 10:59:06;;;;;;;9.23;8.33;;;14.50;98.10;;;;;;5092775;28;20538;-55
2021/12/17 11:01:40;;;;;;;7.73;7.00;;;15.00;97.50;;;;;;5092471;28;20474;-55
2021/12/17 11:04:10;;;;;;;9.57;8.60;;;15.20;97.30;;;;;;5092411;28;20438;-56
2021/12/17 11:06:49;;;;;;;8.10;7.20;;;15.20;96.70;;;;;;5092113;28;20483;-55
2021/12/17 11:09:39;;;;;;;8.63;7.73;;;14.60;96.90;;;;;;5092507;28;20946;-55
2021/12/17 11:12:31;;;;;;;11.97;8.30;;;13.00;97.10;;;;;;5092709;28;20450;-55
2021/12/17 11:15:13;;;;;;;8.97;8.03;;;12.30;98.60;;;;;;5093097;28;20484;-55
2021/12/17 11:17:41;;;;;;;7.80;7.10;;;13.50;99.00;;;;;;5092447;28;20791;-55
2021/12/17 11:20:11;;;;;;;7.97;7.17;;;14.10;98.50;;;;;;5092732;28;20551;-55
2021/12/17 11:22:39;;;;;;;8.13;7.33;;;14.50;96.90;;;;;;5092753;28;20469;-56
2021/12/17 11:25:09;;;;;;;9.07;8.17;;;13.50;97.20;;;;;;5092328;28;20764;-55
2021/12/17 11:27:36;;;;;;;10.07;8.47;;;14.00;98.10;;;;;;5092547;28;20483;-55
2021/12/17 11:30:05;;;;;;;8.90;7.87;;;13.70;97.60;;;;;;5092283;28;20507;-55
2021/12/17 11:32:32;;;;;;;8.20;7.37;;;13.60;98.10;;;;;;5092566;28;20447;-55
2021/12/17 11:35:00;;;;;;;8.20;7.40;;;13.70;97.80;;;;;;5091998;28;20449;-55
2021/12/17 11:37:28;;;;;;;8.83;7.43;;;13.90;97.40;;;;;;5091922;28;20479;-55
2021/12/17 11:39:59;;;;;;;10.00;6.90;;;13.40;97.60;;;;;;5092155;28;20554;-56
2021/12/17 11:42:48;;;;;;;7.70;6.90;;;13.10;98.10;;;;;;5092211;28;20969;-55
2021/12/17 11:45:25;;;;;;;7.97;7.17;;;13.20;98.30;;;;;;5080231;28;20459;-55
2021/12/17 11:47:54;;;;;;;8.03;7.07;;;12.60;98.70;;;;;;5091897;28;20992;-55
2021/12/17 11:50:21;;;;;;;7.90;7.13;;;12.70;99.00;;;;;;5091972;28;20974;-55
2021/12/17 11:52:50;;;;;;;10.20;7.60;;;12.20;98.60;;;;;;5092487;28;20446;-55
2021/12/17 11:55:29;;;;;;;9.83;8.60;;;12.00;99.50;;;;;;5092336;28;20449;-55
2021/12/17 11:58:00;;;;;;;8.07;7.20;;;11.50;99.70;;;;;;5092453;28;20499;-55
2021/12/17 12:00:33;;;;;;;8.20;7.40;;;10.80;99.90;;;;;;5091888;28;20468;-55
2021/12/17 12:03:17;;;;;;;13.80;7.67;;;10.60;99.90;;;;;;5094640;28;20434;-55
2021/12/17 12:05:46;;;;;;;9.77;7.17;;;10.50;99.90;;;;;;5095526;28;20454;-55
2021/12/17 12:08:34;;;;;;;8.93;6.53;;;11.00;99.90;;;;;;5095965;28;20521;-55
2021/12/17 12:11:11;;;;;;;7.73;6.80;;;11.30;99.90;;;;;;5095847;28;20460;-55
2021/12/17 12:13:42;;;;;;;8.90;8.00;;;11.00;99.90;;;;;;5095334;28;20451;-55
2021/12/17 12:16:11;;;;;;;7.83;7.03;;;10.90;99.90;;;;;;5094929;28;20526;-55
2021/12/17 12:18:44;;;;;;;8.37;7.40;;;10.20;99.90;;;;;;5095553;28;20453;-55
2021/12/17 12:21:15;;;;;;;7.07;6.37;;;10.00;99.90;;;;;;5094925;28;20538;-55
2021/12/17 12:23:51;;;;;;;8.27;6.40;;;10.00;99.90;;;;;;5095098;28;20473;-55
2021/12/17 12:26:24;;;;;;;8.70;7.37;;;10.10;99.90;;;;;;5095380;28;20784;-55
2021/12/17 12:29:03;;;;;;;11.10;6.90;;;9.70;99.90;;;;;;5095552;28;20432;-55
2021/12/17 12:31:56;;;;;;;8.67;7.83;;;9.60;99.90;;;;;;5093156;28;20961;-55
2021/12/17 12:34:40;;;;;;;9.67;6.70;;;9.40;99.90;;;;;;5074728;28;20476;-55
2021/12/17 12:37:28;;;;;;;7.67;6.63;;;9.60;99.90;;;;;;5074747;28;20444;-55
2021/12/17 12:40:17;;;;;;;8.37;7.50;;;9.40;99.90;;;;;;5086867;28;20793;-56
2021/12/17 12:42:56;;;;;;;7.20;6.50;;;9.60;99.90;;;;;;5092396;28;20818;-55
2021/12/17 12:45:25;;;;;;;8.20;6.57;;;10.00;99.90;;;;;;5098983;28;20487;-55
2021/12/17 12:48:00;;;;;;;9.37;6.90;;;10.10;99.90;;;;;;5090930;28;20821;-55
2021/12/17 12:50:31;;;;;;;7.40;6.63;;;10.10;99.90;;;;;;5095398;28;20474;-55
2021/12/17 12:53:01;;;;;;;7.30;6.53;;;10.20;99.90;;;;;;5093093;28;20440;-55
2021/12/17 12:55:31;;;;;;;10.73;7.90;;;10.40;99.90;;;;;;5081871;28;20470;-55
2021/12/17 12:58:06;;;;;;;7.83;6.90;;;10.60;99.90;;;;;;5088986;28;20455;-56
2021/12/17 13:00:38;;;;;;;6.70;6.00;;;10.60;99.90;;;;;;5088264;28;20515;-56
2021/12/17 13:03:11;;;;;;;7.90;7.10;;;10.00;99.90;;;;;;5090988;28;20472;-56
2021/12/17 13:05:39;;;;;;;8.27;7.47;;;9.60;99.90;;;;;;5082484;28;20452;-57
2021/12/17 13:08:08;;;;;;;9.63;8.07;;;9.80;99.90;;;;;;5082691;28;20506;-54
2021/12/17 13:10:38;;;;;;;7.30;6.50;;;10.30;99.90;;;;;;5087129;28;20478;-55
2021/12/17 13:13:15;;;;;;;9.90;8.20;;;10.50;99.90;;;;;;5087926;28;20455;-53
2021/12/17 13:15:49;;;;;;;8.30;7.50;;;10.70;99.90;;;;;;5081107;28;20458;-56
2021/12/17 13:21:35;;;;;;;7.83;6.80;;;11.00;99.90;;;;;;5081411;28;20450;-56
2021/12/17 13:24:13;;;;;;;8.03;7.23;;;11.00;99.90;;;;;;5086854;28;20839;-56
2021/12/17 13:26:43;;;;;;;7.67;6.87;;;10.60;99.90;;;;;;5091061;28;20443;-58
2021/12/17 13:29:13;;;;;;;13.63;7.87;;;10.40;99.90;;;;;;5089164;28;20527;-55
2021/12/17 13:31:49;;;;;;;7.53;6.70;;;10.40;99.90;;;;;;5084846;28;20518;-60
2021/12/17 13:34:23;;;;;;;9.03;7.70;;;10.30;99.90;;;;;;5083895;28;20530;-61
2021/12/17 13:36:59;;;;;;;9.83;8.23;;;10.20;99.90;;;;;;5080702;28;20467;-57
2021/12/17 13:39:29;;;;;;;9.33;7.70;;;10.30;99.90;;;;;;5081982;28;20451;-60
2021/12/17 13:41:57;;;;;;;9.30;7.20;;;10.20;99.90;;;;;;5086974;28;20448;-59
2021/12/17 13:44:36;;;;;;;8.17;7.30;;;10.00;99.90;;;;;;5087383;28;20807;-57
2021/12/17 13:47:26;;;;;;;9.90;8.03;;;9.90;99.90;;;;;;5088782;28;20969;-58
2021/12/17 13:49:59;;;;;;;9.83;7.77;;;9.80;99.90;;;;;;5085542;28;20506;-57
2021/12/17 13:52:28;;;;;;;9.27;7.20;;;9.60;99.90;;;;;;5085740;28;20515;-57
2021/12/17 13:54:57;;;;;;;9.23;8.33;;;9.60;99.90;;;;;;5080941;28;20474;-57
2021/12/17 13:57:26;;;;;;;10.43;8.93;;;9.70;99.90;;;;;;5088532;28;20591;-58
2021/12/17 14:00:02;;;;;;;8.67;7.10;;;9.70;99.90;;;;;;5090708;28;20783;-56
2021/12/17 14:02:35;;;;;;;9.83;7.70;;;9.70;99.90;;;;;;5084762;28;20793;-64
2021/12/17 14:05:08;;;;;;;8.77;7.87;;;9.70;99.90;;;;;;5091287;28;20443;-59
2021/12/17 14:07:37;;;;;;;10.30;7.80;;;9.40;99.90;;;;;;5088876;28;20857;-58
2021/12/17 14:10:07;;;;;;;9.17;7.83;;;9.20;99.90;;;;;;5090596;28;20474;-58
2021/12/17 14:12:39;;;;;;;10.50;7.63;;;9.20;99.90;;;;;;5087256;28;20447;-56
2021/12/17 14:15:10;;;;;;;8.60;6.80;;;9.20;99.90;;;;;;5089596;28;20534;-56
2021/12/17 14:17:42;;;;;;;10.53;8.37;;;9.30;99.90;;;;;;5082404;28;20439;-58
2021/12/17 14:20:13;;;;;;;8.60;7.70;;;9.50;99.90;;;;;;5088096;28;20479;-60
2021/12/17 14:22:42;;;;;;;8.90;7.97;;;9.50;99.90;;;;;;5090534;28;20525;-54
2021/12/17 14:25:39;;;;;;;9.93;8.40;;;9.40;99.90;;;;;;5097933;28;20914;-54
2021/12/17 14:28:12;;;;;;;10.43;8.00;;;9.50;99.90;;;;;;5078773;28;20468;-54
2021/12/17 14:30:42;;;;;;;9.77;8.67;;;9.50;99.90;;;;;;5073579;28;20464;-64
2021/12/17 14:33:13;;;;;;;8.90;7.80;;;9.50;99.90;;;;;;5079820;28;20953;-51
2021/12/17 14:35:49;;;;;;;12.93;9.90;;;9.50;99.90;;;;;;5089461;28;20522;-55
2021/12/17 14:38:18;;;;;;;10.07;9.03;;;9.40;99.90;;;;;;5089368;28;20486;-54
2021/12/17 14:40:57;;;;;;;12.70;8.67;;;9.40;99.90;;;;;;5096424;28;20820;-55
2021/12/17 14:43:29;;;;;;;11.47;10.27;;;9.40;99.90;;;;;;5089088;28;20527;-48
2021/12/17 14:46:07;;;;;;;10.17;9.17;;;9.40;99.90;;;;;;5090916;28;20468;-59
2021/12/17 14:48:49;;;;;;;11.43;10.23;;;9.20;99.90;;;;;;5087539;28;20463;-58
2021/12/17 15:02:44;;;;;;;10.70;9.60;;;8.70;99.90;;;;;;5086154;28;20459;-51
2021/12/17 15:05:14;;;;;;;11.00;9.90;;;8.80;99.90;;;;;;5092002;28;20483;-56
2021/12/17 15:07:41;;;;;;;10.63;9.53;;;8.80;99.90;;;;;;5093381;28;20672;-54
2021/12/17 15:10:11;;;;;;;13.70;10.77;;;8.80;99.90;;;;;;5090171;28;20508;-51
2021/12/17 15:12:44;;;;;;;12.60;11.03;;;8.80;99.90;;;;;;5091202;28;20452;-52
2021/12/17 15:15:20;;;;;;;16.23;10.17;;;8.90;99.90;;;;;;5082609;28;20490;-53
2021/12/17 15:17:51;;;;;;;10.33;9.13;;;8.90;99.90;;;;;;5085487;28;20437;-52
2021/12/17 15:20:22;;;;;;;10.90;9.73;;;8.80;99.90;;;;;;5090683;28;20471;-60
2021/12/17 15:22:50;;;;;;;12.17;9.50;;;8.90;99.90;;;;;;5090979;28;20483;-47
2021/12/17 15:25:19;;;;;;;13.50;10.83;;;9.00;99.90;;;;;;5088167;28;20487;-52
2021/12/17 15:27:46;;;;;;;12.10;10.57;;;9.00;99.90;;;;;;5091728;28;20869;-48
2021/12/17 15:30:16;;;;;;;19.40;10.10;;;8.80;99.90;;;;;;5091682;28;20554;-48
2021/12/17 15:32:46;;;;;;;11.97;10.77;;;8.70;99.90;;;;;;5101033;28;20447;-57
2021/12/17 15:35:16;;;;;;;10.80;9.40;;;8.80;99.90;;;;;;5096476;28;20439;-54
2021/12/17 15:37:45;;;;;;;12.73;10.17;;;8.60;99.90;;;;;;5097717;28;20475;-59